Terminal Aerodrome Forecast
Issued by NWS

Home | Current Version | Previous Version | Text Only | Print | Product List | Glossary On
Versions: 1 2 3 4 5 6 7 8 9 10 11 12 13 14 15
000
FTUS45 KRIW 201100
TAFBPI
TAF
KBPI 201120Z 2012/2112 VRB05KT P6SM FEW120 BKN250
     FM202000 30010KT P6SM SCT080
     FM210200 35006KT P6SM FEW250=

USA.gov is the U.S. government's official web portal to all federal, state and local government web resources and services.